createdAt,value
2017-12-22T00:00:29.755Z,80.93
2017-12-22T00:02:58.140Z,80.81
2017-12-22T00:05:26.496Z,81.16
2017-12-22T00:07:54.871Z,81.33
2017-12-22T00:10:23.244Z,81.56
2017-12-22T00:12:51.624Z,81.42
2017-12-22T00:15:19.959Z,81.45
2017-12-22T00:17:48.355Z,81.70
2017-12-22T00:20:17.483Z,81.96
2017-12-22T00:22:45.911Z,81.80
2017-12-22T00:25:14.283Z,81.94
2017-12-22T00:27:42.623Z,81.81
2017-12-22T00:30:11.072Z,82.06
2017-12-22T00:32:39.531Z,82.14
2017-12-22T00:35:07.908Z,81.77
2017-12-22T00:37:36.271Z,81.96
2017-12-22T00:40:04.619Z,81.94
2017-12-22T00:42:33.000Z,81.90
2017-12-22T00:45:01.356Z,81.99
2017-12-22T00:47:29.696Z,82.18
2017-12-22T00:49:58.116Z,81.95
2017-12-22T00:52:26.443Z,81.88
2017-12-22T00:54:54.823Z,82.04
2017-12-22T00:57:23.163Z,81.68
2017-12-22T00:59:51.500Z,81.79
2017-12-22T01:02:20.659Z,81.80
2017-12-22T01:04:49.003Z,82.01
2017-12-22T01:07:17.379Z,82.15
2017-12-22T01:09:46.907Z,82.08
2017-12-22T01:12:15.288Z,81.86
2017-12-22T01:14:43.618Z,81.69
2017-12-22T01:20:17.235Z,81.69
2017-12-22T01:22:46.364Z,81.89
2017-12-22T01:25:14.687Z,81.84
2017-12-22T01:27:43.059Z,81.87
2017-12-22T01:30:11.435Z,82.15
2017-12-22T01:32:39.795Z,82.23
2017-12-22T01:35:08.142Z,82.33
2017-12-22T01:37:36.510Z,82.28
2017-12-22T01:40:04.859Z,82.41
2017-12-22T01:42:33.235Z,82.56
2017-12-22T01:45:01.607Z,82.49
2017-12-22T01:47:29.957Z,82.37
2017-12-22T01:49:58.331Z,82.49
2017-12-22T01:52:26.691Z,82.37
2017-12-22T01:54:55.074Z,82.58
2017-12-22T01:57:23.402Z,82.52
2017-12-22T01:59:51.787Z,82.53
2017-12-22T02:02:20.118Z,82.62
2017-12-22T02:04:48.443Z,82.47
2017-12-22T02:07:16.814Z,82.64
2017-12-22T02:09:45.150Z,82.68
2017-12-22T02:12:13.478Z,82.56
2017-12-22T02:14:42.603Z,82.69
2017-12-22T02:17:10.951Z,82.78
2017-12-22T02:19:39.318Z,82.62
2017-12-22T02:22:07.646Z,82.63
2017-12-22T02:24:36.026Z,82.83
2017-12-22T02:27:04.402Z,82.83
2017-12-22T02:29:32.740Z,82.73
2017-12-22T02:32:01.871Z,82.68
2017-12-22T02:34:30.198Z,82.55
2017-12-22T02:36:58.575Z,82.39
2017-12-22T02:39:26.954Z,82.28
2017-12-22T02:41:55.290Z,82.38
2017-12-22T02:44:23.654Z,82.61
2017-12-22T02:46:52.067Z,82.48
2017-12-22T02:49:20.415Z,82.50
2017-12-22T02:51:48.790Z,82.27
2017-12-22T02:54:17.190Z,82.25
2017-12-22T02:56:46.303Z,82.10
2017-12-22T02:59:17.528Z,82.33
2017-12-22T03:01:45.902Z,82.53
2017-12-22T03:04:14.237Z,82.30
2017-12-22T03:06:43.393Z,82.32
2017-12-22T03:09:11.722Z,82.04
2017-12-22T03:11:40.822Z,82.00
2017-12-22T03:14:09.950Z,82.19
2017-12-22T03:16:38.297Z,82.38
2017-12-22T03:19:06.705Z,82.44
2017-12-22T03:21:35.066Z,82.74
2017-12-22T03:24:03.437Z,82.70
2017-12-22T03:26:31.802Z,82.78
2017-12-22T03:29:00.910Z,82.74
2017-12-22T03:31:29.282Z,82.80
2017-12-22T03:33:57.642Z,82.90
2017-12-22T03:36:27.382Z,82.60
2017-12-22T03:38:55.789Z,82.70
2017-12-22T03:41:24.161Z,82.36
2017-12-22T03:43:52.493Z,82.31
2017-12-22T03:46:21.630Z,82.31
2017-12-22T03:48:50.190Z,82.30
2017-12-22T03:51:18.797Z,82.31
2017-12-22T03:53:47.193Z,82.23
2017-12-22T03:56:15.537Z,82.21
2017-12-22T03:58:43.908Z,82.57
2017-12-22T04:01:12.277Z,82.77
2017-12-22T04:03:41.437Z,82.83
2017-12-22T04:06:10.585Z,82.67
2017-12-22T04:08:38.945Z,82.19
2017-12-22T04:11:08.074Z,82.31
2017-12-22T04:13:36.445Z,82.51
2017-12-22T04:16:04.803Z,81.90
2017-12-22T04:18:33.141Z,82.20
2017-12-22T04:21:01.501Z,82.43
2017-12-22T04:23:29.893Z,82.37
2017-12-22T04:25:58.229Z,82.83
2017-12-22T04:28:26.576Z,82.55
2017-12-22T04:30:55.717Z,82.47
2017-12-22T04:33:24.053Z,82.06
2017-12-22T04:35:54.305Z,81.64
2017-12-22T04:38:22.750Z,81.62
2017-12-22T04:40:52.618Z,81.45
2017-12-22T04:43:20.977Z,81.68
2017-12-22T04:45:49.341Z,81.65
2017-12-22T04:48:17.668Z,81.59
2017-12-22T04:50:46.037Z,81.80
2017-12-22T04:53:15.853Z,81.43
2017-12-22T04:55:44.301Z,81.96
2017-12-22T04:58:12.679Z,81.98
2017-12-22T05:00:41.016Z,82.37
2017-12-22T05:03:10.273Z,81.99
2017-12-22T05:05:38.641Z,82.16
2017-12-22T05:08:07.021Z,82.18
2017-12-22T05:10:35.365Z,82.43
2017-12-22T05:13:04.652Z,82.49
2017-12-22T05:15:33.756Z,82.26
2017-12-22T05:18:02.909Z,82.42
2017-12-22T05:20:32.924Z,82.37
2017-12-22T05:23:01.362Z,82.39
2017-12-22T05:25:29.721Z,82.49
2017-12-22T05:27:58.225Z,82.29
2017-12-22T05:30:27.233Z,82.46
2017-12-22T05:32:55.585Z,82.35
2017-12-22T05:35:23.956Z,82.55
2017-12-22T05:37:53.061Z,82.52
2017-12-22T05:40:21.418Z,82.90
2017-12-22T05:42:50.569Z,82.94
2017-12-22T05:45:18.916Z,82.71
2017-12-22T05:47:48.068Z,82.94
2017-12-22T05:50:16.540Z,83.15
2017-12-22T05:52:44.921Z,82.88
2017-12-22T05:55:13.728Z,83.31
2017-12-22T05:57:42.344Z,83.19
2017-12-22T06:00:10.771Z,83.29
2017-12-22T06:02:39.112Z,83.75
2017-12-22T06:05:07.482Z,83.76
2017-12-22T06:07:35.848Z,84.00
2017-12-22T06:10:05.697Z,84.00
2017-12-22T06:12:34.060Z,84.24
2017-12-22T06:15:02.464Z,84.50
2017-12-22T06:17:30.820Z,84.92
2017-12-22T06:19:59.996Z,85.00
2017-12-22T06:22:28.453Z,85.24
2017-12-22T06:24:56.800Z,85.13
2017-12-22T06:27:25.192Z,85.03
2017-12-22T06:29:53.533Z,85.37
2017-12-22T06:32:21.889Z,85.55
2017-12-22T06:34:50.234Z,85.46
2017-12-22T06:37:18.604Z,85.27
2017-12-22T06:39:46.982Z,85.34
2017-12-22T06:42:15.320Z,85.30
2017-12-22T06:44:43.728Z,85.35
2017-12-22T06:47:12.060Z,85.30
2017-12-22T06:49:40.392Z,85.19
2017-12-22T06:52:08.806Z,85.46
2017-12-22T06:54:37.184Z,85.32
2017-12-22T06:57:06.324Z,85.55
2017-12-22T06:59:34.708Z,85.20
2017-12-22T07:02:03.972Z,84.91
2017-12-22T07:04:32.343Z,84.89
2017-12-22T07:07:00.693Z,84.75
2017-12-22T07:09:29.845Z,84.84
2017-12-22T07:11:59.062Z,84.93
2017-12-22T07:14:27.426Z,84.42
2017-12-22T07:16:55.761Z,84.48
2017-12-22T07:19:24.899Z,84.58
2017-12-22T07:21:53.240Z,84.36
2017-12-22T07:24:21.828Z,84.55
2017-12-22T07:26:50.197Z,84.52
2017-12-22T07:29:18.542Z,84.18
2017-12-22T07:31:47.786Z,83.71
2017-12-22T07:34:16.141Z,83.92
2017-12-22T07:36:45.277Z,83.98
2017-12-22T07:39:13.624Z,83.74
2017-12-22T07:41:42.002Z,83.80
2017-12-22T07:44:10.476Z,83.69
2017-12-22T07:46:39.588Z,83.52
2017-12-22T07:49:07.969Z,83.52
2017-12-22T07:51:36.300Z,83.14
2017-12-22T07:54:04.672Z,82.91
2017-12-22T07:56:33.704Z,82.54
2017-12-22T07:59:02.012Z,82.41
2017-12-22T08:01:30.412Z,82.25
2017-12-22T08:03:58.749Z,81.99
2017-12-22T08:06:27.089Z,81.67
2017-12-22T08:08:55.471Z,81.24
2017-12-22T08:11:24.580Z,80.94
2017-12-22T08:13:53.748Z,80.81
2017-12-22T08:16:22.095Z,80.53
2017-12-22T08:18:50.474Z,80.45
2017-12-22T08:21:18.831Z,80.45
2017-12-22T08:23:47.172Z,80.46
2017-12-22T08:26:15.561Z,80.52
2017-12-22T08:28:44.672Z,80.56
2017-12-22T08:31:13.055Z,80.54
2017-12-22T08:33:41.422Z,80.75
2017-12-22T08:36:09.807Z,80.77
2017-12-22T08:38:38.175Z,80.13
2017-12-22T08:41:07.323Z,80.03
2017-12-22T08:43:35.655Z,79.98
2017-12-22T08:46:04.799Z,79.64
2017-12-22T08:48:33.243Z,79.30
2017-12-22T08:51:01.881Z,79.11
2017-12-22T08:53:30.207Z,79.22
2017-12-22T08:55:58.787Z,79.18
2017-12-22T08:58:28.224Z,78.69
2017-12-22T09:00:56.608Z,78.91
2017-12-22T09:03:24.991Z,78.84
2017-12-22T09:05:53.338Z,78.93
2017-12-22T09:08:21.878Z,79.09
2017-12-22T09:10:51.020Z,79.17
2017-12-22T09:13:26.090Z,78.88
2017-12-22T09:15:54.461Z,79.01
2017-12-22T09:18:23.048Z,78.69
2017-12-22T09:20:51.479Z,78.48
2017-12-22T09:23:19.807Z,77.88
2017-12-22T09:25:48.299Z,77.37
2017-12-22T09:28:17.427Z,77.26
2017-12-22T09:30:45.795Z,76.80
2017-12-22T09:33:14.141Z,76.07
2017-12-22T09:35:42.478Z,75.29
2017-12-22T09:38:10.844Z,74.73
2017-12-22T09:40:39.171Z,74.06
2017-12-22T09:43:07.507Z,73.62
2017-12-22T09:45:35.879Z,73.28
2017-12-22T09:48:04.271Z,72.71
2017-12-22T09:50:32.631Z,72.58
2017-12-22T09:53:01.041Z,73.05
2017-12-22T09:55:29.417Z,73.19
2017-12-22T09:57:57.756Z,72.96
2017-12-22T10:00:26.139Z,73.38
2017-12-22T10:02:54.471Z,73.85
2017-12-22T10:05:22.893Z,73.68
2017-12-22T10:07:51.303Z,73.47
2017-12-22T10:10:19.639Z,73.81
2017-12-22T10:12:48.757Z,73.35
2017-12-22T10:15:17.870Z,73.00
2017-12-22T10:17:46.195Z,73.25
2017-12-22T10:20:15.342Z,73.51
2017-12-22T10:22:43.670Z,73.65
2017-12-22T10:25:12.779Z,73.67
2017-12-22T10:27:41.931Z,73.50
2017-12-22T10:30:10.431Z,73.17
2017-12-22T10:32:38.798Z,73.33
2017-12-22T10:35:07.246Z,73.02
2017-12-22T10:37:35.640Z,73.24
2017-12-22T10:40:04.023Z,72.95
2017-12-22T10:42:32.371Z,73.12
2017-12-22T10:45:01.531Z,73.17
2017-12-22T10:47:30.746Z,73.33
2017-12-22T10:49:59.158Z,73.61
2017-12-22T10:52:27.506Z,73.72
2017-12-22T10:54:56.846Z,73.99
2017-12-22T10:57:26.099Z,73.87
2017-12-22T10:59:57.290Z,73.46
2017-12-22T11:02:25.664Z,73.99
2017-12-22T11:04:54.046Z,73.96
2017-12-22T11:07:23.590Z,74.27
2017-12-22T11:09:52.020Z,73.94
2017-12-22T11:12:20.422Z,73.97
2017-12-22T11:14:49.168Z,74.08
2017-12-22T11:17:17.546Z,73.79
2017-12-22T11:19:45.954Z,73.75
2017-12-22T11:22:14.311Z,73.63
2017-12-22T11:24:43.002Z,73.82
2017-12-22T11:27:11.412Z,73.43
2017-12-22T11:29:39.834Z,72.74
2017-12-22T11:32:08.242Z,71.98
2017-12-22T11:34:36.602Z,71.24
2017-12-22T11:37:04.986Z,70.55
2017-12-22T11:39:33.650Z,71.09
2017-12-22T11:42:02.102Z,71.74
2017-12-22T11:44:30.586Z,72.37
2017-12-22T11:46:59.725Z,72.76
2017-12-22T11:49:28.090Z,72.83
2017-12-22T11:51:56.425Z,72.62
2017-12-22T11:54:24.802Z,72.52
2017-12-22T11:56:53.149Z,72.42
2017-12-22T11:59:21.607Z,72.70
2017-12-22T12:01:49.937Z,72.20
2017-12-22T12:04:18.285Z,72.29
2017-12-22T12:06:46.642Z,72.31
2017-12-22T12:09:15.062Z,72.27
2017-12-22T12:11:43.366Z,73.07
2017-12-22T12:14:12.643Z,73.39
2017-12-22T12:16:41.078Z,73.80
2017-12-22T12:19:09.482Z,74.21
2017-12-22T12:21:37.889Z,74.34
2017-12-22T12:24:07.421Z,74.26
2017-12-22T12:26:36.589Z,74.39
2017-12-22T12:29:04.976Z,74.08
2017-12-22T12:31:33.330Z,75.15
2017-12-22T12:34:01.695Z,75.63
2017-12-22T12:36:31.226Z,75.99
2017-12-22T12:39:01.331Z,76.47
2017-12-22T12:41:30.846Z,76.87
2017-12-22T12:43:59.323Z,76.52
2017-12-22T12:46:27.670Z,77.07
2017-12-22T12:48:56.065Z,77.57
2017-12-22T12:51:24.410Z,77.58
2017-12-22T12:53:52.757Z,77.68
2017-12-22T12:56:21.137Z,77.52
2017-12-22T12:58:50.251Z,77.68
2017-12-22T13:01:18.645Z,77.77
2017-12-22T13:03:47.985Z,77.88
2017-12-22T13:06:16.929Z,78.00
2017-12-22T13:08:45.297Z,77.81
2017-12-22T13:11:13.729Z,77.40
2017-12-22T13:13:42.146Z,77.33
2017-12-22T13:16:11.246Z,77.16
2017-12-22T13:18:39.585Z,77.02
2017-12-22T13:21:07.989Z,77.31
2017-12-22T13:23:36.350Z,77.54
2017-12-22T13:26:04.797Z,77.16
2017-12-22T13:28:33.141Z,77.06
2017-12-22T13:31:02.305Z,77.18
2017-12-22T13:33:30.673Z,77.32
2017-12-22T13:35:59.054Z,77.40
2017-12-22T13:38:27.481Z,77.02
2017-12-22T13:40:55.833Z,76.95
2017-12-22T13:43:24.221Z,77.01
2017-12-22T13:45:53.377Z,76.96
2017-12-22T13:48:21.740Z,77.02
2017-12-22T13:50:50.078Z,77.24
2017-12-22T13:53:19.217Z,77.28
2017-12-22T13:55:47.557Z,77.15
2017-12-22T13:58:15.921Z,77.35
2017-12-22T14:00:45.029Z,77.52
2017-12-22T14:03:13.418Z,77.57
2017-12-22T14:05:41.762Z,77.91
2017-12-22T14:08:10.109Z,78.08
2017-12-22T14:10:38.545Z,78.45
2017-12-22T14:13:07.033Z,78.89
2017-12-22T14:15:35.517Z,78.70
2017-12-22T14:18:04.094Z,78.88
2017-12-22T14:20:32.480Z,79.12
2017-12-22T14:23:00.825Z,79.47
2017-12-22T14:25:29.919Z,79.87
2017-12-22T14:27:59.052Z,79.79
2017-12-22T14:30:27.396Z,79.86
2017-12-22T14:32:56.541Z,79.75
2017-12-22T14:35:24.888Z,80.18
2017-12-22T14:37:53.236Z,80.56
2017-12-22T14:40:21.608Z,80.96
2017-12-22T14:42:50.020Z,80.90
2017-12-22T14:45:18.396Z,80.52
2017-12-22T14:47:47.520Z,80.60
2017-12-22T14:50:15.963Z,80.86
2017-12-22T14:52:45.276Z,81.00
2017-12-22T14:55:14.400Z,81.56
2017-12-22T14:57:42.768Z,81.74
2017-12-22T15:00:11.184Z,81.95
2017-12-22T15:02:39.548Z,81.87
2017-12-22T15:05:07.905Z,81.74
2017-12-22T15:07:36.256Z,81.72
2017-12-22T15:10:04.596Z,81.70
2017-12-22T15:12:32.995Z,81.57
2017-12-22T15:15:01.383Z,81.74
2017-12-22T15:17:29.746Z,81.48
2017-12-22T15:19:58.121Z,82.00
2017-12-22T15:22:26.507Z,82.15
2017-12-22T15:24:55.624Z,82.03
2017-12-22T15:27:24.744Z,82.04
2017-12-22T15:29:53.078Z,82.23
2017-12-22T15:32:22.228Z,82.20
2017-12-22T15:34:50.552Z,81.74
2017-12-22T15:37:20.319Z,81.85
2017-12-22T15:39:48.668Z,81.74
2017-12-22T15:42:17.008Z,81.43
2017-12-22T15:44:45.392Z,81.19
2017-12-22T15:47:14.496Z,80.88
2017-12-22T15:49:43.615Z,80.91
2017-12-22T15:52:12.780Z,81.14
2017-12-22T15:54:41.107Z,81.35
2017-12-22T15:57:09.462Z,81.31
2017-12-22T15:59:37.852Z,81.39
2017-12-22T16:02:06.241Z,81.67
2017-12-22T16:04:34.569Z,82.06
2017-12-22T16:07:03.710Z,82.26
2017-12-22T16:09:32.038Z,82.31
2017-12-22T16:12:00.447Z,81.94
2017-12-22T16:14:28.788Z,81.39
2017-12-22T16:16:57.133Z,80.94
2017-12-22T16:19:25.508Z,80.83
2017-12-22T16:21:53.835Z,80.73
2017-12-22T16:24:23.031Z,80.84
2017-12-22T16:26:52.146Z,80.75
2017-12-22T16:29:20.523Z,80.61
2017-12-22T16:31:48.860Z,80.71
2017-12-22T16:34:17.192Z,80.47
2017-12-22T16:36:45.644Z,80.50
2017-12-22T16:39:14.802Z,80.32
2017-12-22T16:41:43.175Z,80.18
2017-12-22T16:44:11.601Z,80.11
2017-12-22T16:46:39.959Z,80.30
2017-12-22T16:49:09.364Z,80.12
2017-12-22T16:51:38.503Z,80.27
2017-12-22T16:54:06.863Z,80.29
2017-12-22T16:56:35.919Z,80.22
2017-12-22T16:59:04.381Z,79.69
2017-12-22T17:01:32.724Z,79.56
2017-12-22T17:04:01.143Z,79.62
2017-12-22T17:06:29.488Z,80.00
2017-12-22T17:08:57.859Z,80.13
2017-12-22T17:11:26.259Z,79.91
2017-12-22T17:13:54.592Z,79.84
2017-12-22T17:16:23.707Z,79.93
2017-12-22T17:18:52.144Z,79.93
2017-12-22T17:21:20.490Z,79.31
2017-12-22T17:23:48.890Z,79.25
2017-12-22T17:26:17.313Z,78.93
2017-12-22T17:28:45.685Z,78.90
2017-12-22T17:31:15.007Z,78.79
2017-12-22T17:33:43.337Z,78.92
2017-12-22T17:36:11.719Z,78.75
2017-12-22T17:38:40.067Z,78.59
2017-12-22T17:41:08.401Z,78.29
2017-12-22T17:43:36.853Z,78.47
2017-12-22T17:46:05.219Z,78.18
2017-12-22T17:48:33.584Z,77.95
2017-12-22T17:51:02.064Z,77.75
2017-12-22T17:53:30.428Z,78.04
2017-12-22T17:55:58.829Z,77.94
2017-12-22T17:58:27.168Z,78.17
2017-12-22T18:00:55.679Z,77.98
2017-12-22T18:03:24.031Z,78.11
2017-12-22T18:06:02.407Z,77.91
2017-12-22T18:08:30.843Z,77.73
2017-12-22T18:10:59.283Z,77.49
2017-12-22T18:13:28.392Z,77.83
2017-12-22T18:16:00.646Z,78.02
2017-12-22T18:18:29.182Z,77.50
2017-12-22T18:20:57.748Z,77.28
2017-12-22T18:23:26.119Z,77.20
2017-12-22T18:25:54.505Z,77.28
2017-12-22T18:28:22.849Z,77.62
2017-12-22T18:30:51.199Z,77.45
2017-12-22T18:33:20.374Z,77.05
2017-12-22T18:35:49.908Z,77.04
2017-12-22T18:38:19.683Z,77.18
2017-12-22T18:40:48.146Z,77.35
2017-12-22T18:43:16.631Z,77.61
2017-12-22T18:45:45.895Z,77.22
2017-12-22T18:48:14.238Z,77.28
2017-12-22T18:50:42.610Z,77.10
2017-12-22T18:53:10.941Z,77.45
2017-12-22T18:55:39.302Z,77.48
2017-12-22T18:58:08.438Z,77.18
2017-12-22T19:00:37.563Z,76.94
2017-12-22T19:03:05.969Z,77.17
2017-12-22T19:05:35.106Z,76.96
2017-12-22T19:08:03.434Z,77.19
2017-12-22T19:10:32.579Z,76.79
2017-12-22T19:13:00.914Z,76.53
2017-12-22T19:15:29.256Z,76.49
2017-12-22T19:17:57.622Z,76.65
2017-12-22T19:20:25.955Z,76.34
2017-12-22T19:22:55.079Z,76.64
2017-12-22T19:25:23.454Z,76.58
2017-12-22T19:27:51.790Z,76.67
2017-12-22T19:30:21.615Z,76.67
2017-12-22T19:32:51.452Z,76.54
2017-12-22T19:35:19.822Z,76.64
2017-12-22T19:37:49.058Z,76.60
2017-12-22T19:40:17.508Z,76.74
2017-12-22T19:42:46.714Z,76.95
2017-12-22T19:45:15.090Z,77.05
2017-12-22T19:47:43.425Z,76.99
2017-12-22T19:50:13.414Z,77.21
2017-12-22T19:52:42.554Z,77.29
2017-12-22T19:55:12.582Z,77.40
2017-12-22T19:57:41.802Z,77.80
2017-12-22T20:00:11.218Z,77.36
2017-12-22T20:02:40.339Z,77.16
2017-12-22T20:05:09.403Z,77.20
2017-12-22T20:07:37.750Z,76.94
2017-12-22T20:10:06.217Z,77.23
2017-12-22T20:12:35.378Z,77.40
2017-12-22T20:15:03.786Z,77.17
2017-12-22T20:17:32.882Z,77.27
2017-12-22T20:20:05.422Z,77.07
2017-12-22T20:22:33.849Z,76.94
2017-12-22T20:25:02.198Z,76.87
2017-12-22T20:27:31.461Z,77.16
2017-12-22T20:30:00.101Z,77.25
2017-12-22T20:32:29.225Z,77.52
2017-12-22T20:34:57.623Z,77.66
2017-12-22T20:37:26.186Z,77.78
2017-12-22T20:39:54.524Z,77.54
2017-12-22T20:42:23.769Z,77.73
2017-12-22T20:44:52.103Z,78.13
2017-12-22T20:47:22.133Z,78.44
2017-12-22T20:49:50.471Z,78.13
2017-12-22T20:52:18.845Z,78.74
2017-12-22T20:54:47.229Z,78.46
2017-12-22T20:57:16.517Z,78.52
2017-12-22T20:59:45.685Z,78.85
2017-12-22T21:02:14.047Z,78.41
2017-12-22T21:04:42.751Z,78.55
2017-12-22T21:07:11.094Z,78.70
2017-12-22T21:09:39.457Z,78.41
2017-12-22T21:12:08.771Z,78.32
2017-12-22T21:14:38.346Z,78.50
2017-12-22T21:17:06.715Z,78.92
2017-12-22T21:19:35.346Z,78.80
2017-12-22T21:22:04.473Z,78.35
2017-12-22T21:24:32.828Z,78.41
2017-12-22T21:27:01.934Z,77.80
2017-12-22T21:29:31.027Z,77.64
2017-12-22T21:31:59.433Z,77.08
2017-12-22T21:34:27.828Z,77.09
2017-12-22T21:36:57.153Z,77.20
2017-12-22T21:39:26.293Z,77.36
2017-12-22T21:41:54.637Z,77.73
2017-12-22T21:44:23.837Z,78.01
2017-12-22T21:46:52.937Z,78.41
2017-12-22T21:49:21.897Z,78.32
2017-12-22T21:51:50.281Z,78.14
2017-12-22T21:54:19.462Z,78.15
2017-12-22T21:56:47.850Z,77.66
2017-12-22T21:59:16.194Z,77.57
2017-12-22T22:01:44.565Z,77.56
2017-12-22T22:04:12.917Z,77.70
2017-12-22T22:06:42.021Z,77.77
2017-12-22T22:09:10.441Z,77.64
2017-12-22T22:11:39.005Z,77.75
2017-12-22T22:14:07.348Z,77.64
2017-12-22T22:16:35.721Z,77.78
2017-12-22T22:19:18.121Z,78.59
2017-12-22T22:21:46.464Z,79.23
2017-12-22T22:24:14.804Z,79.47
2017-12-22T22:26:43.220Z,79.58
2017-12-22T22:29:11.588Z,79.76
2017-12-22T22:31:40.837Z,80.12
2017-12-22T22:34:09.225Z,80.28
2017-12-22T22:36:37.621Z,80.35
2017-12-22T22:39:07.928Z,80.49
2017-12-22T22:41:36.284Z,80.43
2017-12-22T22:44:04.653Z,80.14
2017-12-22T22:46:32.988Z,79.96
2017-12-22T22:49:02.117Z,80.20
2017-12-22T22:51:30.505Z,79.97
2017-12-22T22:53:58.932Z,79.80
2017-12-22T22:56:28.072Z,79.85
2017-12-22T22:58:56.436Z,79.75
2017-12-22T23:01:24.824Z,79.81
2017-12-22T23:03:53.168Z,79.55
2017-12-22T23:06:22.316Z,79.74
2017-12-22T23:08:50.688Z,79.63
2017-12-22T23:11:19.496Z,79.41
2017-12-22T23:13:47.904Z,79.38
2017-12-22T23:16:17.844Z,79.51
2017-12-22T23:18:46.228Z,79.32
2017-12-22T23:21:15.361Z,79.17
2017-12-22T23:23:43.701Z,78.93
2017-12-22T23:26:12.093Z,79.27
2017-12-22T23:28:41.683Z,79.27
2017-12-22T23:31:10.024Z,79.23
2017-12-22T23:33:38.412Z,79.31
2017-12-22T23:36:07.547Z,78.92
2017-12-22T23:38:35.895Z,79.04
2017-12-22T23:41:05.021Z,78.99
2017-12-22T23:43:33.373Z,78.98
2017-12-22T23:46:01.746Z,78.80
2017-12-22T23:48:30.892Z,78.89
2017-12-22T23:50:59.240Z,79.03
2017-12-22T23:53:28.453Z,79.35
2017-12-22T23:55:56.822Z,79.31
2017-12-22T23:58:25.156Z,79.56
